createdAt,value
2018-11-20T00:02:28.851Z,32.83
2018-11-20T00:05:21.851Z,32.63
2018-11-20T00:08:11.068Z,31.93
2018-11-20T00:10:56.510Z,33.50
2018-11-20T00:13:43.999Z,32.15
2018-11-20T00:16:27.313Z,31.90
2018-11-20T00:19:13.085Z,30.57
2018-11-20T00:21:59.034Z,32.73
2018-11-20T00:24:44.787Z,33.25
2018-11-20T00:27:37.780Z,31.23
2018-11-20T00:30:24.764Z,31.02
2018-11-20T00:33:01.025Z,31.45
2018-11-20T00:35:48.049Z,30.00
2018-11-20T00:38:33.974Z,31.20
2018-11-20T00:41:23.872Z,31.20
2018-11-20T00:44:09.697Z,31.50
2018-11-20T00:47:00.259Z,31.93
2018-11-20T00:49:51.601Z,30.00
2018-11-20T00:52:44.757Z,30.65
2018-11-20T00:56:08.073Z,30.45
2018-11-20T00:59:01.612Z,29.77
2018-11-20T01:01:47.009Z,30.00
2018-11-20T01:04:33.865Z,30.02
2018-11-20T01:07:29.578Z,30.32
2018-11-20T01:10:22.281Z,29.65
2018-11-20T01:13:00.200Z,30.00
2018-11-20T01:15:50.420Z,30.50
2018-11-20T01:18:36.790Z,31.00
2018-11-20T01:21:28.131Z,29.48
2018-11-20T01:24:15.083Z,29.72
2018-11-20T01:26:59.434Z,29.30
2018-11-20T01:29:45.038Z,29.07
2018-11-20T01:32:33.827Z,28.60
2018-11-20T01:35:27.046Z,28.67
2018-11-20T01:38:15.138Z,29.72
2018-11-20T01:40:57.028Z,29.65
2018-11-20T01:43:41.600Z,29.32
2018-11-20T01:46:27.000Z,30.95
2018-11-20T01:49:09.677Z,30.50
2018-11-20T01:52:03.010Z,28.52
2018-11-20T01:54:59.311Z,28.70
2018-11-20T01:57:45.384Z,29.50
2018-11-20T02:00:37.211Z,28.62
2018-11-20T02:03:33.376Z,29.55
2018-11-20T02:06:20.433Z,28.67
2018-11-20T02:09:10.806Z,28.62
2018-11-20T02:11:56.566Z,27.48
2018-11-20T02:14:43.576Z,29.32
2018-11-20T02:17:40.562Z,27.93
2018-11-20T02:20:27.252Z,28.62
2018-11-20T02:23:12.907Z,28.30
2018-11-20T02:25:58.659Z,27.15
2018-11-20T02:28:51.849Z,25.25
2018-11-20T02:31:36.354Z,26.52
2018-11-20T02:34:30.280Z,26.17
2018-11-20T02:37:15.916Z,25.90
2018-11-20T02:40:03.228Z,26.03
2018-11-20T02:42:50.135Z,26.07
2018-11-20T02:45:42.207Z,25.37
2018-11-20T02:48:38.078Z,25.97
2018-11-20T02:51:18.090Z,24.57
2018-11-20T02:54:05.884Z,26.17
2018-11-20T02:56:59.099Z,25.25
2018-11-20T03:00:04.323Z,24.20
2018-11-20T03:02:57.340Z,25.15
2018-11-20T03:05:44.301Z,23.80
2018-11-20T03:08:40.292Z,23.60
2018-11-20T03:11:42.815Z,23.98
2018-11-20T03:14:26.519Z,23.57
2018-11-20T03:17:20.987Z,23.80
2018-11-20T03:20:06.781Z,24.93
2018-11-20T03:22:50.352Z,22.15
2018-11-20T03:26:14.694Z,23.62
2018-11-20T03:29:52.215Z,23.30
2018-11-20T03:32:37.499Z,22.62
2018-11-20T03:35:23.670Z,22.90
2018-11-20T03:38:14.885Z,23.92
2018-11-20T03:41:07.801Z,20.95
2018-11-20T03:43:54.719Z,20.32
2018-11-20T03:46:39.027Z,22.52
2018-11-20T03:49:25.986Z,21.73
2018-11-20T03:52:12.931Z,21.77
2018-11-20T03:54:58.504Z,21.02
2018-11-20T03:57:48.441Z,22.32
2018-11-20T04:00:35.317Z,19.75
2018-11-20T04:03:20.500Z,21.73
2018-11-20T04:06:02.566Z,21.35
2018-11-20T04:08:49.586Z,21.68
2018-11-20T04:11:48.846Z,21.50
2018-11-20T04:14:34.519Z,20.12
2018-11-20T04:17:20.852Z,20.80
2018-11-20T04:19:54.103Z,19.80
2018-11-20T04:22:52.136Z,19.60
2018-11-20T04:25:41.942Z,19.45
2018-11-20T04:28:34.848Z,20.20
2018-11-20T04:32:04.928Z,18.95
2018-11-20T04:34:57.909Z,18.37
2018-11-20T04:37:33.536Z,18.70
2018-11-20T04:40:10.768Z,18.75
2018-11-20T04:43:06.749Z,18.17
2018-11-20T04:45:56.488Z,18.87
2018-11-20T04:48:49.172Z,18.20
2018-11-20T04:51:29.061Z,18.23
2018-11-20T04:54:18.987Z,18.82
2018-11-20T04:57:24.079Z,17.92
2018-11-20T05:00:11.131Z,18.05
2018-11-20T05:02:56.702Z,17.50
2018-11-20T05:05:53.665Z,17.42
2018-11-20T05:08:46.715Z,18.25
2018-11-20T05:11:33.817Z,17.60
2018-11-20T05:14:23.928Z,17.02
2018-11-20T05:16:59.163Z,17.07
2018-11-20T05:19:44.972Z,18.35
2018-11-20T05:22:26.763Z,18.02
2018-11-20T05:25:21.254Z,19.30
2018-11-20T05:28:18.817Z,17.50
2018-11-20T05:30:57.848Z,18.80
2018-11-20T05:33:43.166Z,18.60
2018-11-20T05:36:29.297Z,18.07
2018-11-20T05:39:34.462Z,17.60
2018-11-20T05:42:10.981Z,18.07
2018-11-20T05:44:56.478Z,18.50
2018-11-20T05:47:40.974Z,18.05
2018-11-20T05:50:46.087Z,17.90
2018-11-20T05:53:32.254Z,16.85
2018-11-20T05:56:18.121Z,17.23
2018-11-20T05:58:54.924Z,15.95
2018-11-20T06:01:54.059Z,16.12
2018-11-20T06:04:49.876Z,16.82
2018-11-20T06:07:35.285Z,15.63
2018-11-20T06:10:22.279Z,16.12
2018-11-20T06:13:24.710Z,16.25
2018-11-20T06:16:10.779Z,15.27
2018-11-20T06:19:03.648Z,14.50
2018-11-20T06:21:58.158Z,13.80
2018-11-20T06:24:41.785Z,13.70
2018-11-20T06:27:28.778Z,14.13
2018-11-20T06:30:15.694Z,14.70
2018-11-20T06:32:52.871Z,14.65
2018-11-20T06:35:54.587Z,14.43
2018-11-20T06:38:41.335Z,14.98
2018-11-20T06:41:37.211Z,14.58
2018-11-20T06:44:42.568Z,14.00
2018-11-20T06:47:23.947Z,14.43
2018-11-20T06:50:17.258Z,13.95
2018-11-20T06:53:00.253Z,12.27
2018-11-20T06:56:01.728Z,14.23
2018-11-20T06:58:47.389Z,13.10
2018-11-20T07:01:33.307Z,11.95
2018-11-20T07:04:20.105Z,11.73
2018-11-20T07:07:10.218Z,11.70
2018-11-20T07:11:42.954Z,13.43
2018-11-20T07:14:30.855Z,12.68
2018-11-20T07:17:26.828Z,12.43
2018-11-20T07:20:12.851Z,12.70
2018-11-20T07:22:59.851Z,12.75
2018-11-20T07:25:53.125Z,12.43
2018-11-20T07:28:40.014Z,10.85
2018-11-20T07:31:25.876Z,11.75
2018-11-20T07:34:24.945Z,11.38
2018-11-20T07:37:06.767Z,11.00
2018-11-20T07:40:02.819Z,11.93
2018-11-20T07:42:55.418Z,10.40
2018-11-20T07:45:41.037Z,11.33
2018-11-20T07:48:34.282Z,11.30
2018-11-20T07:51:21.197Z,11.90
2018-11-20T07:54:17.414Z,11.63
2018-11-20T07:57:13.379Z,11.53
2018-11-20T08:00:05.862Z,11.38
2018-11-20T08:02:58.529Z,11.35
2018-11-20T08:05:44.269Z,10.70
2018-11-20T08:08:22.620Z,10.60
2018-11-20T08:11:06.971Z,10.95
2018-11-20T08:14:02.877Z,9.63
2018-11-20T08:16:48.749Z,10.58
2018-11-20T08:19:40.910Z,10.37
2018-11-20T08:22:26.735Z,10.37
2018-11-20T08:25:12.849Z,9.70
2018-11-20T08:28:01.400Z,10.23
2018-11-20T08:30:51.579Z,10.93
2018-11-20T08:33:41.336Z,10.45
2018-11-20T08:36:23.856Z,9.60
2018-11-20T08:39:14.528Z,10.48
2018-11-20T08:42:03.025Z,10.05
2018-11-20T08:44:48.860Z,9.55
2018-11-20T08:47:41.973Z,10.80
2018-11-20T08:50:44.049Z,10.60
2018-11-20T08:53:30.240Z,9.33
2018-11-20T08:56:23.191Z,9.45
2018-11-20T08:59:00.439Z,9.85
2018-11-20T09:01:45.845Z,9.40
2018-11-20T09:04:31.751Z,9.67
2018-11-20T09:07:17.554Z,10.82
2018-11-20T09:10:16.974Z,9.95
2018-11-20T09:13:18.882Z,10.10
2018-11-20T09:15:56.937Z,10.10
2018-11-20T09:19:02.017Z,9.70
2018-11-20T09:22:07.402Z,9.50
2018-11-20T09:25:03.234Z,9.70
2018-11-20T09:28:05.043Z,9.03
2018-11-20T09:30:54.629Z,9.78
2018-11-20T09:33:50.771Z,9.15
2018-11-20T09:36:27.862Z,9.40
2018-11-20T09:39:03.101Z,9.85
2018-11-20T09:41:59.160Z,10.10
2018-11-20T09:44:52.862Z,8.90
2018-11-20T09:47:45.791Z,9.83
2018-11-20T09:50:31.059Z,9.67
2018-11-20T09:53:16.609Z,9.70
2018-11-20T09:56:04.078Z,10.48
2018-11-20T09:58:48.303Z,9.30
2018-11-20T10:01:53.578Z,9.35
2018-11-20T10:04:39.336Z,9.60
2018-11-20T10:07:32.340Z,9.45
2018-11-20T10:10:16.356Z,8.90
2018-11-20T10:13:01.843Z,9.30
2018-11-20T10:15:48.124Z,9.30
2018-11-20T10:18:33.909Z,8.90
2018-11-20T10:21:20.946Z,9.00
2018-11-20T10:24:11.231Z,8.68
2018-11-20T10:26:56.827Z,8.88
2018-11-20T10:29:44.329Z,8.70
2018-11-20T10:32:30.427Z,8.73
2018-11-20T10:35:41.872Z,9.73
2018-11-20T10:38:41.011Z,8.90
2018-11-20T10:41:26.901Z,9.60
2018-11-20T10:44:20.235Z,9.50
2018-11-20T10:46:58.421Z,8.73
2018-11-20T10:49:56.733Z,9.80
2018-11-20T10:52:52.683Z,9.68
2018-11-20T10:55:35.159Z,9.25
2018-11-20T10:58:20.990Z,9.15
2018-11-20T11:01:10.386Z,9.90
2018-11-20T11:04:12.520Z,9.50
2018-11-20T11:07:00.993Z,9.53
2018-11-20T11:09:46.694Z,9.50
2018-11-20T11:12:40.235Z,8.58
2018-11-20T11:15:42.551Z,8.60
2018-11-20T11:18:32.558Z,9.45
2018-11-20T11:21:14.422Z,9.00
2018-11-20T11:24:13.469Z,8.23
2018-11-20T11:27:03.105Z,8.88
2018-11-20T11:29:44.620Z,9.65
2018-11-20T11:32:36.317Z,9.70
2018-11-20T11:35:22.430Z,9.78
2018-11-20T11:38:00.518Z,10.08
2018-11-20T11:40:46.337Z,10.10
2018-11-20T11:43:33.919Z,9.80
2018-11-20T11:46:23.888Z,8.68
2018-11-20T11:49:10.885Z,9.63
2018-11-20T11:51:54.537Z,9.43
2018-11-20T11:54:56.663Z,9.28
2018-11-20T11:57:49.392Z,9.40
2018-11-20T12:00:39.043Z,8.95
2018-11-20T12:03:15.761Z,9.20
2018-11-20T12:06:01.910Z,9.60
2018-11-20T12:08:49.004Z,9.58
2018-11-20T12:11:36.082Z,9.73
2018-11-20T12:14:12.031Z,10.03
2018-11-20T12:17:08.198Z,9.55
2018-11-20T12:20:04.793Z,9.90
2018-11-20T12:22:50.558Z,9.85
2018-11-20T12:25:29.222Z,8.85
2018-11-20T12:28:34.820Z,10.30
2018-11-20T12:31:28.746Z,8.98
2018-11-20T12:34:26.275Z,9.95
2018-11-20T12:37:24.553Z,9.40
2018-11-20T12:40:14.565Z,9.20
2018-11-20T12:43:05.803Z,10.00
2018-11-20T12:45:59.198Z,9.40
2018-11-20T12:49:02.145Z,10.25
2018-11-20T12:51:48.746Z,9.80
2018-11-20T12:54:35.030Z,9.80
2018-11-20T12:57:22.012Z,9.50
2018-11-20T13:00:07.875Z,9.90
2018-11-20T13:02:53.686Z,9.10
2018-11-20T13:05:46.726Z,8.80
2018-11-20T13:08:32.370Z,9.60
2018-11-20T13:11:18.025Z,9.38
2018-11-20T13:14:04.006Z,9.53
2018-11-20T13:16:49.576Z,9.10
2018-11-20T13:19:38.488Z,9.45
2018-11-20T13:22:18.852Z,8.78
2018-11-20T13:24:58.025Z,8.50
2018-11-20T13:27:44.171Z,8.80
2018-11-20T13:30:47.022Z,8.77
2018-11-20T13:33:25.669Z,8.90
2018-11-20T13:36:23.323Z,8.00
2018-11-20T13:39:25.398Z,9.30
2018-11-20T13:42:14.662Z,8.58
2018-11-20T13:45:20.945Z,8.40
2018-11-20T13:48:06.593Z,9.80
2018-11-20T13:50:51.918Z,8.78
2018-11-20T13:53:40.819Z,8.68
2018-11-20T13:56:39.341Z,9.00
2018-11-20T13:59:41.233Z,9.40
2018-11-20T14:02:33.847Z,9.48
2018-11-20T14:05:35.784Z,8.78
2018-11-20T14:08:28.628Z,8.95
2018-11-20T14:11:25.091Z,8.75
2018-11-20T14:14:14.817Z,8.60
2018-11-20T14:16:59.951Z,9.50
2018-11-20T14:19:37.050Z,9.43
2018-11-20T14:22:22.130Z,8.60
2018-11-20T14:25:21.689Z,8.93
2018-11-20T14:27:57.419Z,9.20
2018-11-20T14:30:41.485Z,8.90
2018-11-20T14:33:29.963Z,9.67
2018-11-20T14:36:15.125Z,9.10
2018-11-20T14:39:11.169Z,9.53
2018-11-20T14:42:06.841Z,8.83
2018-11-20T14:44:56.351Z,8.90
2018-11-20T14:47:41.751Z,8.98
2018-11-20T14:50:26.775Z,8.58
2018-11-20T14:53:25.329Z,8.88
2018-11-20T14:56:15.289Z,9.30
2018-11-20T14:59:01.602Z,9.15
2018-11-20T15:01:47.484Z,9.18
2018-11-20T15:04:49.588Z,9.08
2018-11-20T15:07:29.675Z,9.90
2018-11-20T15:10:20.576Z,10.28
2018-11-20T15:13:07.664Z,10.18
2018-11-20T15:15:57.371Z,9.50
2018-11-20T15:18:47.009Z,10.78
2018-11-20T15:21:49.054Z,11.43
2018-11-20T15:24:40.810Z,17.27
2018-11-20T15:27:26.578Z,13.08
2018-11-20T15:30:18.626Z,18.15
2018-11-20T15:33:04.260Z,25.00
2018-11-20T15:35:59.981Z,24.70
2018-11-20T15:38:45.380Z,14.00
2018-11-20T15:41:44.710Z,12.47
2018-11-20T15:44:30.295Z,12.80
2018-11-20T15:47:16.173Z,14.53
2018-11-20T15:50:15.461Z,14.70
2018-11-20T15:52:52.632Z,15.48
2018-11-20T15:55:39.660Z,15.20
2018-11-20T15:58:25.366Z,15.05
2018-11-20T16:01:11.465Z,16.10
2018-11-20T16:04:00.003Z,13.00
2018-11-20T16:06:47.746Z,15.15
2018-11-20T16:09:43.709Z,16.05
2018-11-20T16:12:33.640Z,16.70
2018-11-20T16:15:20.588Z,14.80
2018-11-20T16:18:06.159Z,14.38
2018-11-20T16:20:46.525Z,15.10
2018-11-20T16:23:42.750Z,14.83
2018-11-20T16:26:29.704Z,14.87
2018-11-20T16:29:25.613Z,15.28
2018-11-20T16:32:11.236Z,14.45
2018-11-20T16:34:56.839Z,15.98
2018-11-20T16:37:42.268Z,18.07
2018-11-20T16:40:28.205Z,18.23
2018-11-20T16:43:24.921Z,19.60
2018-11-20T16:46:11.930Z,20.90
2018-11-20T16:48:57.694Z,21.07
2018-11-20T16:51:47.594Z,20.43
2018-11-20T16:54:34.953Z,22.48
2018-11-20T16:57:20.776Z,25.25
2018-11-20T17:00:23.296Z,23.85
2018-11-20T17:03:13.335Z,25.83
2018-11-20T17:06:09.235Z,28.05
2018-11-20T17:09:11.565Z,25.75
2018-11-20T17:12:00.049Z,26.12
2018-11-20T17:15:05.507Z,25.60
2018-11-20T17:17:52.979Z,25.65
2018-11-20T17:20:53.464Z,24.70
2018-11-20T17:23:52.385Z,26.00
2018-11-20T17:26:38.250Z,19.73
2018-11-20T17:29:24.360Z,17.02
2018-11-20T17:32:17.440Z,19.80
2018-11-20T17:35:02.756Z,20.97
2018-11-20T17:37:52.763Z,22.62
2018-11-20T17:40:38.689Z,22.67
2018-11-20T17:43:21.669Z,21.25
2018-11-20T17:46:14.645Z,21.15
2018-11-20T17:49:01.600Z,22.27
2018-11-20T17:51:47.725Z,21.75
2018-11-20T17:54:33.056Z,21.87
2018-11-20T17:57:18.735Z,22.15
2018-11-20T18:00:12.049Z,22.35
2018-11-20T18:02:59.096Z,22.42
2018-11-20T18:05:40.946Z,24.10
2018-11-20T18:08:31.643Z,22.40
2018-11-20T18:11:10.199Z,27.85
2018-11-20T18:14:00.258Z,31.93
2018-11-20T18:16:57.922Z,29.97
2018-11-20T18:19:44.887Z,40.52
2018-11-20T18:22:27.858Z,45.25
2018-11-20T18:25:17.550Z,33.30
2018-11-20T18:27:54.735Z,18.50
2018-11-20T18:30:56.975Z,21.37
2018-11-20T18:33:46.840Z,19.60
2018-11-20T18:36:22.809Z,19.70
2018-11-20T18:39:08.233Z,19.17
2018-11-20T18:42:01.155Z,22.87
2018-11-20T18:44:54.016Z,21.97
2018-11-20T18:47:43.650Z,22.93
2018-11-20T18:50:36.455Z,20.60
2018-11-20T18:53:22.863Z,19.25
2018-11-20T18:56:12.033Z,17.70
2018-11-20T18:58:59.052Z,19.02
2018-11-20T19:01:45.029Z,17.25
2018-11-20T19:04:24.936Z,17.80
2018-11-20T19:07:17.965Z,17.32
2018-11-20T19:09:56.909Z,17.90
2018-11-20T19:12:43.922Z,20.00
2018-11-20T19:15:29.759Z,19.67
2018-11-20T19:18:16.729Z,18.40
2018-11-20T19:21:02.452Z,17.87
2018-11-20T19:24:01.725Z,17.00
2018-11-20T19:26:51.511Z,17.55
2018-11-20T19:29:38.444Z,17.23
2018-11-20T19:32:21.354Z,16.80
2018-11-20T19:34:59.265Z,16.60
2018-11-20T19:37:45.038Z,15.45
2018-11-20T19:40:30.895Z,16.32
2018-11-20T19:43:11.787Z,16.60
2018-11-20T19:45:57.286Z,17.23
2018-11-20T19:48:42.302Z,16.75
2018-11-20T19:51:29.212Z,16.82
2018-11-20T19:54:25.027Z,16.32
2018-11-20T19:57:10.622Z,16.15
2018-11-20T20:00:02.522Z,16.95
2018-11-20T20:02:55.343Z,16.15
2018-11-20T20:05:45.369Z,15.55
2018-11-20T20:08:47.608Z,15.68
2018-11-20T20:11:33.021Z,15.40
2018-11-20T20:14:26.002Z,15.18
2018-11-20T20:17:28.202Z,14.20
2018-11-20T20:20:33.696Z,14.15
2018-11-20T20:23:20.727Z,14.70
2018-11-20T20:26:04.693Z,15.80
2018-11-20T20:28:50.264Z,14.73
2018-11-20T20:31:27.992Z,16.07
2018-11-20T20:34:06.320Z,16.30
2018-11-20T20:37:05.441Z,17.20
2018-11-20T20:40:01.533Z,16.25
2018-11-20T20:42:58.184Z,15.08
2018-11-20T20:45:41.993Z,14.87
2018-11-20T20:48:47.408Z,15.85
2018-11-20T20:51:37.434Z,15.85
2018-11-20T20:54:38.151Z,15.27
2018-11-20T20:57:24.109Z,17.00
2018-11-20T21:00:17.089Z,16.55
2018-11-20T21:03:13.172Z,16.85
2018-11-20T21:06:00.969Z,16.60
2018-11-20T21:08:46.531Z,17.55
2018-11-20T21:11:51.921Z,17.15
2018-11-20T21:14:32.367Z,19.02
2018-11-20T21:17:19.459Z,20.43
2018-11-20T21:20:05.398Z,20.30
2018-11-20T21:23:04.779Z,19.70
2018-11-20T21:26:01.359Z,20.32
2018-11-20T21:28:48.291Z,22.70
2018-11-20T21:31:38.153Z,20.70
2018-11-20T21:34:24.023Z,20.23
2018-11-20T21:37:20.187Z,18.50
2018-11-20T21:40:09.390Z,22.20
2018-11-20T21:42:55.201Z,23.80
2018-11-20T21:45:41.004Z,23.27
2018-11-20T21:48:34.150Z,25.00
2018-11-20T21:51:12.489Z,24.72
2018-11-20T21:54:11.357Z,25.17
2018-11-20T21:57:07.344Z,25.90
2018-11-20T21:59:56.681Z,26.87
2018-11-20T22:02:59.053Z,27.80
2018-11-20T22:05:51.601Z,28.83
2018-11-20T22:08:57.301Z,30.65
2018-11-20T22:11:42.883Z,30.68
2018-11-20T22:14:29.962Z,30.88
2018-11-20T22:17:15.829Z,33.88
2018-11-20T22:20:17.620Z,33.48
2018-11-20T22:23:13.842Z,35.33
2018-11-20T22:25:59.669Z,35.33
2018-11-20T22:28:41.376Z,35.25
2018-11-20T22:31:34.177Z,37.65
2018-11-20T22:34:19.843Z,36.25
2018-11-20T22:37:15.650Z,37.95
2018-11-20T22:40:11.877Z,39.45
2018-11-20T22:43:01.512Z,39.70
2018-11-20T22:46:06.765Z,37.17
2018-11-20T22:48:52.512Z,39.27
2018-11-20T22:51:39.519Z,40.83
2018-11-20T22:54:18.058Z,39.78
2018-11-20T22:57:23.374Z,42.70
2018-11-20T23:00:13.351Z,40.17
2018-11-20T23:02:58.981Z,40.27
2018-11-20T23:05:54.246Z,39.85
2018-11-20T23:08:21.756Z,41.92
2018-11-20T23:10:49.394Z,41.23
2018-11-20T23:13:16.950Z,41.45
2018-11-20T23:15:44.626Z,40.63
2018-11-20T23:18:12.056Z,41.20
2018-11-20T23:20:39.626Z,43.55
2018-11-20T23:23:07.214Z,41.53
2018-11-20T23:25:34.816Z,41.70
2018-11-20T23:28:02.243Z,40.90
2018-11-20T23:30:29.839Z,41.73
2018-11-20T23:32:57.323Z,42.78
2018-11-20T23:35:24.795Z,43.78
2018-11-20T23:37:52.303Z,43.80
2018-11-20T23:40:19.916Z,43.85
2018-11-20T23:42:47.540Z,43.77
2018-11-20T23:45:15.415Z,45.50
2018-11-20T23:47:43.371Z,45.23
2018-11-20T23:52:34.716Z,45.17
2018-11-20T23:55:02.284Z,44.45
2018-11-20T23:57:29.808Z,44.60
2018-11-20T23:59:57.358Z,42.85
